createdAt,value
2022-08-24T11:24:13.126Z,376.88
2022-08-24T11:25:13.113Z,376.88
2022-08-24T11:26:13.095Z,371.25
2022-08-24T11:27:13.093Z,365.63
2022-08-24T11:28:13.085Z,365.63
2022-08-24T11:29:13.083Z,360.00
2022-08-24T11:30:13.057Z,354.38
2022-08-24T11:31:13.093Z,348.75
2022-08-24T11:32:13.034Z,343.13
2022-08-24T11:33:20.086Z,343.13
2022-08-24T11:34:13.016Z,343.13
2022-08-24T11:35:13.048Z,343.13
2022-08-24T11:36:12.997Z,343.13
2022-08-24T11:37:12.997Z,343.13
2022-08-24T11:38:12.998Z,343.13
2022-08-24T11:39:12.984Z,343.13
2022-08-24T11:40:13.042Z,343.13
2022-08-24T11:41:12.958Z,354.38
2022-08-24T11:42:12.958Z,354.38
2022-08-24T11:43:12.956Z,360.00
2022-08-24T11:44:12.939Z,365.63
2022-08-24T11:45:12.926Z,371.25
2022-08-24T11:46:12.973Z,371.25
2022-08-24T11:47:12.916Z,371.25
2022-08-24T11:48:12.894Z,371.25
2022-08-24T11:49:12.903Z,371.25
2022-08-24T11:50:12.889Z,371.25
2022-08-24T11:51:12.871Z,371.25
2022-08-24T11:52:12.863Z,376.88
2022-08-24T11:53:12.969Z,371.25
2022-08-24T11:54:12.846Z,371.25
2022-08-24T11:55:12.849Z,371.25
2022-08-24T11:56:14.489Z,376.88
2022-08-24T11:57:12.821Z,376.88
2022-08-24T11:58:12.843Z,376.88
2022-08-24T11:59:12.808Z,382.50
2022-08-24T12:00:12.801Z,382.50
2022-08-24T12:01:12.793Z,382.50
2022-08-24T12:02:12.958Z,388.13
2022-08-24T12:03:12.925Z,393.75
2022-08-24T12:04:12.774Z,393.75
2022-08-24T12:05:14.031Z,393.75
2022-08-24T12:06:12.767Z,382.50
2022-08-24T12:07:12.744Z,382.50
2022-08-24T12:08:12.749Z,382.50
2022-08-24T12:09:12.745Z,388.13
2022-08-24T12:10:12.732Z,388.13
2022-08-24T12:11:12.728Z,393.75
2022-08-24T12:12:12.717Z,393.75
2022-08-24T12:13:12.714Z,393.75
2022-08-24T12:14:12.695Z,393.75
2022-08-24T12:15:12.689Z,399.38
2022-08-24T12:16:12.708Z,399.38
2022-08-24T12:17:12.683Z,399.38
2022-08-24T12:18:12.676Z,405.00
2022-08-24T12:19:12.664Z,405.00
2022-08-24T12:20:12.657Z,405.00
2022-08-24T12:21:12.901Z,410.63
2022-08-24T12:22:12.635Z,410.63
2022-08-24T12:23:12.639Z,416.25
2022-08-24T12:24:12.621Z,421.88
2022-08-24T12:25:12.616Z,421.88
2022-08-24T12:26:12.619Z,421.88
2022-08-24T12:27:12.611Z,421.88
2022-08-24T12:28:12.602Z,427.50
2022-08-24T12:29:12.585Z,438.75
2022-08-24T12:30:12.580Z,438.75
2022-08-24T12:31:12.628Z,450.00
2022-08-24T12:32:12.574Z,444.38
2022-08-24T12:33:12.575Z,444.38
2022-08-24T12:34:12.549Z,450.00
2022-08-24T12:35:12.541Z,455.63
2022-08-24T12:36:12.553Z,455.63
2022-08-24T12:37:16.337Z,461.25
2022-08-24T12:38:12.536Z,466.88
2022-08-24T12:39:12.525Z,466.88
2022-08-24T12:40:12.558Z,466.88
2022-08-24T12:41:19.024Z,472.50
2022-08-24T12:42:16.797Z,472.50
2022-08-24T12:43:12.530Z,478.13
2022-08-24T12:44:12.493Z,489.38
2022-08-24T12:45:12.482Z,500.63
2022-08-24T12:46:12.542Z,511.88
2022-08-24T12:47:13.427Z,517.50
2022-08-24T12:48:12.488Z,523.13
2022-08-24T12:49:12.458Z,517.50
2022-08-24T12:50:12.445Z,506.25
2022-08-24T12:51:12.445Z,506.25
2022-08-24T12:52:12.439Z,500.63
2022-08-24T12:53:14.136Z,495.00
2022-08-24T12:54:12.419Z,495.00
2022-08-24T12:55:12.407Z,495.00
2022-08-24T12:56:12.405Z,500.63
2022-08-24T12:57:12.411Z,506.25
2022-08-24T12:59:12.386Z,511.88
2022-08-24T13:00:12.378Z,517.50
2022-08-24T13:01:12.469Z,500.63
2022-08-24T13:02:12.416Z,506.25
2022-08-24T13:03:12.382Z,517.50
2022-08-24T13:04:12.365Z,528.75
2022-08-24T13:05:12.357Z,534.38
2022-08-24T13:06:12.345Z,540.00
2022-08-24T13:07:12.346Z,551.25
2022-08-24T13:08:12.354Z,568.13
2022-08-24T13:09:12.336Z,590.63
2022-08-24T13:10:12.336Z,607.50
2022-08-24T13:11:12.320Z,613.13
2022-08-24T13:12:12.310Z,635.63
2022-08-24T13:13:12.335Z,658.13
2022-08-24T13:14:12.300Z,714.38
2022-08-24T13:15:12.298Z,787.50
2022-08-24T13:16:12.325Z,956.25
2022-08-24T13:17:12.288Z,1569.38
2022-08-24T13:18:12.291Z,2430.00
2022-08-24T13:19:12.271Z,2964.38
2022-08-24T13:20:12.285Z,2902.50
2022-08-24T13:21:12.259Z,2745.00
2022-08-24T13:22:12.269Z,2902.50
2022-08-24T13:23:12.263Z,3065.63
2022-08-24T13:24:15.599Z,3054.38
2022-08-24T13:25:12.239Z,2930.63
2022-08-24T13:26:12.232Z,2745.00
2022-08-24T13:27:12.237Z,2908.13
2022-08-24T13:28:12.267Z,3138.75
2022-08-24T13:29:12.226Z,3105.00
2022-08-24T13:30:12.253Z,2902.50
2022-08-24T13:31:12.240Z,2671.88
2022-08-24T13:32:12.211Z,2846.25
2022-08-24T13:33:12.205Z,2998.13
2022-08-24T13:34:12.215Z,2896.88
2022-08-24T13:35:12.200Z,2863.13
2022-08-24T13:36:12.200Z,2885.63
2022-08-24T13:37:12.183Z,3178.13
2022-08-24T13:38:12.203Z,3172.50
2022-08-24T13:39:12.184Z,2970.00
2022-08-24T13:40:12.273Z,2885.63
2022-08-24T13:41:12.165Z,2587.50
2022-08-24T13:42:12.172Z,2671.88
2022-08-24T13:43:12.218Z,2553.75
2022-08-24T13:44:12.154Z,2311.88
2022-08-24T13:45:12.149Z,2598.75
2022-08-24T13:46:13.355Z,2598.75
2022-08-24T13:47:12.144Z,2790.00
2022-08-24T13:48:12.150Z,2767.50
2022-08-24T13:49:12.137Z,2874.38
2022-08-24T13:50:12.151Z,2835.00
2022-08-24T13:51:12.129Z,2863.13
2022-08-24T13:52:12.126Z,3189.38
2022-08-24T13:53:12.145Z,2885.63
2022-08-24T13:54:19.992Z,2823.75
2022-08-24T13:55:12.121Z,3003.75
2022-08-24T13:56:12.110Z,3251.25
2022-08-24T13:57:12.105Z,2520.00
2022-08-24T13:58:12.124Z,1271.25
2022-08-24T14:08:17.320Z,1895.63
2022-08-24T14:09:17.307Z,1839.38
2022-08-24T14:10:17.292Z,1771.88
2022-08-24T14:11:17.304Z,1755.00
2022-08-24T14:12:17.277Z,1805.63
2022-08-24T14:13:17.296Z,1743.75
2022-08-24T14:14:17.268Z,1845.00
2022-08-24T14:15:17.276Z,1738.13
2022-08-24T14:16:17.284Z,1833.75
2022-08-24T14:17:19.362Z,1845.00
2022-08-24T14:18:17.262Z,1816.88
2022-08-24T14:19:17.245Z,1861.88
2022-08-24T14:20:21.986Z,1895.63
2022-08-24T14:21:17.981Z,1996.88
2022-08-24T14:22:17.240Z,2070.00
2022-08-24T14:23:17.241Z,2188.13
2022-08-24T14:24:17.225Z,2300.63
2022-08-24T14:25:17.223Z,2126.25
2022-08-24T14:26:17.225Z,1681.88
2022-08-24T14:27:17.224Z,2064.38
2022-08-24T14:28:17.224Z,1968.75
2022-08-24T14:29:17.229Z,2300.63
2022-08-24T14:30:17.206Z,2430.00
2022-08-24T14:31:17.252Z,2300.63
2022-08-24T14:32:17.197Z,2407.50
2022-08-24T14:33:17.244Z,2581.88
2022-08-24T14:34:17.205Z,2542.50
2022-08-24T14:35:17.203Z,2722.50
2022-08-24T14:36:17.205Z,2615.63
2022-08-24T14:37:17.191Z,2705.63
2022-08-24T14:38:17.196Z,2722.50
2022-08-24T14:39:17.208Z,2649.38
2022-08-24T14:40:17.252Z,2880.00
2022-08-24T14:41:17.183Z,2823.75
2022-08-24T14:42:17.188Z,2660.63
2022-08-24T14:43:20.267Z,2728.13
2022-08-24T14:44:17.179Z,2902.50
2022-08-24T14:45:17.185Z,2632.50
2022-08-24T14:46:17.253Z,2829.38
2022-08-24T14:47:17.173Z,2896.88
2022-08-24T14:48:17.194Z,2660.63
2022-08-24T14:49:17.171Z,2638.13
2022-08-24T14:50:17.178Z,2621.25
2022-08-24T14:51:17.170Z,2458.13
2022-08-24T14:52:17.178Z,2491.88
2022-08-24T14:53:17.190Z,2238.75
2022-08-24T14:54:17.178Z,2542.50
2022-08-24T14:55:17.172Z,2851.88
2022-08-24T14:56:17.178Z,2773.13
2022-08-24T14:57:17.181Z,2525.63
2022-08-24T14:58:17.179Z,2514.38
2022-08-24T14:59:17.180Z,2632.50
2022-08-24T15:00:17.168Z,2368.13
2022-08-24T15:01:17.243Z,2300.63
2022-08-24T15:02:17.168Z,2475.00
2022-08-24T15:03:17.193Z,2458.13
2022-08-24T15:04:17.217Z,2497.50
2022-08-24T15:05:17.210Z,2407.50
2022-08-24T15:06:26.919Z,2272.50
2022-08-24T15:07:17.191Z,2531.25
2022-08-24T15:08:18.192Z,2424.38
2022-08-24T15:09:17.167Z,2165.63
2022-08-24T15:10:17.168Z,2188.13
2022-08-24T15:11:17.182Z,2041.88
2022-08-24T15:12:17.185Z,1906.88
2022-08-24T15:13:17.193Z,1816.88
2022-08-24T15:14:19.888Z,1743.75
2022-08-24T15:15:17.177Z,1580.63
2022-08-24T15:16:17.205Z,1468.13
2022-08-24T15:17:17.181Z,1575.00
2022-08-24T15:18:17.194Z,1828.13
2022-08-24T15:19:17.178Z,2019.38
2022-08-24T15:20:17.179Z,2047.50
2022-08-24T15:21:17.173Z,1985.63
2022-08-24T15:22:17.174Z,1985.63
2022-08-24T15:23:17.185Z,2025.00
2022-08-24T15:24:17.192Z,1918.13
2022-08-24T15:25:19.191Z,1895.63
2022-08-24T15:26:17.165Z,1710.00
2022-08-24T15:27:17.170Z,2193.75
2022-08-24T15:28:17.175Z,2311.88
2022-08-24T15:29:17.163Z,2334.38
2022-08-24T15:30:17.158Z,2463.75
2022-08-24T15:31:17.209Z,2508.75
2022-08-24T15:32:17.157Z,2548.13
2022-08-24T15:33:19.350Z,2531.25
2022-08-24T15:34:17.146Z,2452.50
2022-08-24T15:35:17.157Z,2289.38
2022-08-24T15:36:17.151Z,2345.63
2022-08-24T15:37:17.148Z,2323.13
2022-08-24T15:38:17.963Z,2058.75
2022-08-24T15:39:17.144Z,1670.63
2022-08-24T15:40:17.215Z,2070.00
2022-08-24T15:41:17.145Z,2148.75
2022-08-24T15:42:17.153Z,2193.75
2022-08-24T15:43:17.169Z,1743.75
2022-08-24T15:44:21.311Z,950.63
2022-08-24T15:45:17.154Z,748.13
2022-08-24T15:46:17.227Z,691.88
2022-08-24T15:56:32.405Z,1507.50
2022-08-24T15:57:32.405Z,1288.13
2022-08-24T16:55:23.070Z,405.00
2022-08-24T16:56:23.057Z,371.25
2022-08-24T16:59:43.614Z,360.00
2022-08-24T17:00:43.619Z,348.75
2022-08-24T17:01:43.662Z,360.00
2022-08-24T17:02:43.633Z,348.75
